Madrid, Spain
Current Conditions -  °F | °C
As of 5:00 PM on Thursday 27 Nov 2014 (Local Time) from LEVS Reporting Station
Broken Clouds Broken Clouds  
Wind Chill: 52°   Ceiling: 5400
Heat Index: 52°   Visibility: 6mi
Dew Point: 46°   Wind: 12mph
Humidity: 82%   Direction: 130°SE
Pressure: 29.41"   Gusts: NA
Location:  40.42°N, 3.7°W
Report Text: LEVS 271600Z 13010KT 100V160 9999 FEW018 BKN054 11/08 Q0996
Loading
Personal Weather Stations






























Interactive Weather Map New forecast layout! Learn more

10-Day Weather Forecast

Advertisements
Track Severe Weather on mobile